Time;durP1;ratioP1;P1;durP2;ratioP2;P2;SDS_P1;SDS_P2;PMS_P1;PMS_P2;Temp;Humidity;BMP_temperature;BMP_pressure;BME280_temperature;BME280_humidity;BME280_pressure;Samples;Min_cycle;Max_cycle;Signal;HPM_P1;HPM_P2
2020/12/05 00:01:58;;;;;;;5.95;4.30;;;20.60;45.40;;;;;;5070505;28;20118;-56
2020/12/05 00:04:24;;;;;;;5.13;4.20;;;20.60;45.40;;;;;;5072633;28;20090;-57
2020/12/05 00:06:50;;;;;;;6.25;4.38;;;20.60;45.30;;;;;;5071517;28;20473;-58
2020/12/05 00:09:15;;;;;;;7.72;4.90;;;20.60;45.30;;;;;;5070636;28;20485;-57
2020/12/05 00:11:41;;;;;;;8.32;5.07;;;20.60;45.30;;;;;;5071759;28;20457;-57
2020/12/05 00:14:06;;;;;;;6.45;4.80;;;20.60;45.20;;;;;;5070171;28;20020;-55
2020/12/05 00:16:32;;;;;;;6.00;4.55;;;20.60;45.20;;;;;;5071263;28;20033;-56
2020/12/05 00:18:58;;;;;;;6.65;5.22;;;20.50;45.10;;;;;;5069959;28;20078;-55
2020/12/05 00:21:25;;;;;;;6.35;4.72;;;20.60;45.00;;;;;;5071771;28;20076;-57
2020/12/05 00:23:51;;;;;;;8.45;5.57;;;20.50;45.00;;;;;;5070473;28;20032;-58
2020/12/05 00:26:18;;;;;;;7.38;5.05;;;20.50;44.90;;;;;;5071032;28;20035;-57
2020/12/05 00:28:44;;;;;;;6.47;4.85;;;20.50;44.90;;;;;;5070883;28;20112;-57
2020/12/05 00:31:14;;;;;;;6.80;4.72;;;20.50;44.80;;;;;;5069958;28;20103;-56
2020/12/05 00:33:41;;;;;;;7.18;4.95;;;20.50;44.80;;;;;;5073092;28;20128;-55
2020/12/05 00:36:08;;;;;;;6.43;4.43;;;20.50;44.80;;;;;;5069859;28;20071;-57
2020/12/05 00:38:34;;;;;;;6.95;4.25;;;20.50;44.80;;;;;;5071049;28;20120;-58
2020/12/05 00:41:03;;;;;;;5.25;3.92;;;20.50;44.70;;;;;;5067287;28;20029;-57
2020/12/05 00:43:32;;;;;;;8.55;5.03;;;20.50;44.60;;;;;;5070034;28;20032;-58
2020/12/05 00:45:58;;;;;;;6.57;4.95;;;20.50;44.60;;;;;;5051918;28;20025;-57
2020/12/05 00:48:23;;;;;;;6.60;4.75;;;20.50;44.60;;;;;;5070425;28;20024;-57
2020/12/05 00:50:50;;;;;;;7.03;4.90;;;20.50;44.60;;;;;;5052518;28;20420;-58
2020/12/05 00:53:15;;;;;;;6.45;3.92;;;20.50;44.50;;;;;;5069575;28;20028;-57
2020/12/05 00:55:44;;;;;;;7.90;4.72;;;20.50;44.50;;;;;;5071159;28;20526;-55
2020/12/05 00:58:10;;;;;;;7.38;4.78;;;20.50;44.40;;;;;;5069419;28;20044;-57
2020/12/05 01:00:36;;;;;;;7.70;5.10;;;20.50;44.40;;;;;;5071074;28;20516;-57
2020/12/05 01:03:01;;;;;;;6.93;4.68;;;20.50;44.40;;;;;;5072294;28;20494;-57
2020/12/05 01:05:29;;;;;;;6.97;4.63;;;20.50;44.30;;;;;;5070194;28;20036;-58
2020/12/05 01:07:55;;;;;;;7.07;4.22;;;20.50;44.30;;;;;;5069401;28;20062;-58
2020/12/05 01:10:22;;;;;;;7.30;4.97;;;20.50;44.30;;;;;;5067082;28;20032;-57
2020/12/05 01:12:48;;;;;;;6.03;4.53;;;20.50;44.20;;;;;;5069420;28;20499;-55
2020/12/05 01:15:14;;;;;;;6.45;4.68;;;20.50;44.20;;;;;;5069364;28;20036;-57
2020/12/05 01:17:39;;;;;;;6.68;4.25;;;20.50;44.10;;;;;;5070647;28;20024;-57
2020/12/05 01:20:06;;;;;;;5.35;4.38;;;20.50;44.10;;;;;;5069292;28;20056;-57
2020/12/05 01:22:32;;;;;;;8.10;4.95;;;20.50;44.10;;;;;;5069619;28;20115;-57
2020/12/05 01:24:58;;;;;;;5.97;4.45;;;20.50;44.00;;;;;;5083986;28;20162;-57
2020/12/05 01:27:25;;;;;;;5.95;4.35;;;20.50;44.00;;;;;;5069494;28;20041;-58
2020/12/05 01:29:51;;;;;;;5.60;4.30;;;20.50;43.90;;;;;;5069369;28;20473;-58
2020/12/05 01:32:17;;;;;;;6.63;4.90;;;20.50;43.90;;;;;;5069296;28;20029;-57
2020/12/05 01:34:43;;;;;;;5.85;4.55;;;20.50;43.90;;;;;;5069571;28;20032;-57
2020/12/05 01:37:09;;;;;;;5.82;4.35;;;20.50;43.90;;;;;;5069983;28;20473;-57
2020/12/05 01:39:36;;;;;;;5.85;4.40;;;20.50;43.90;;;;;;5070500;28;20060;-57
2020/12/05 01:42:02;;;;;;;5.63;4.57;;;20.50;43.80;;;;;;5070630;28;20033;-56
2020/12/05 01:44:29;;;;;;;6.13;4.30;;;20.50;43.80;;;;;;5070518;28;20124;-57
2020/12/05 01:46:55;;;;;;;6.00;4.25;;;20.50;43.80;;;;;;5070494;28;20056;-58
2020/12/05 01:49:22;;;;;;;6.32;4.60;;;20.60;43.80;;;;;;5071045;28;20059;-58
2020/12/05 01:51:49;;;;;;;6.22;4.80;;;20.50;43.80;;;;;;5070948;28;20054;-57
2020/12/05 01:54:15;;;;;;;5.88;4.40;;;20.60;43.80;;;;;;5070594;28;20059;-57
2020/12/05 01:56:44;;;;;;;5.85;4.70;;;20.50;43.70;;;;;;5086388;28;20060;-57
2020/12/05 01:59:10;;;;;;;5.63;4.22;;;20.60;43.80;;;;;;5070059;28;20415;-57
2020/12/05 02:01:38;;;;;;;6.28;4.47;;;20.60;43.70;;;;;;5070248;28;20127;-57
2020/12/05 02:04:03;;;;;;;7.35;4.55;;;20.60;43.70;;;;;;5069817;28;20036;-57
2020/12/05 02:06:53;;;;;;;6.75;4.97;;;20.60;43.80;;;;;;5070542;28;20466;-57
2020/12/05 02:09:24;;;;;;;5.30;4.22;;;20.60;43.70;;;;;;5065671;28;20024;-57
2020/12/05 02:12:16;;;;;;;6.70;4.75;;;20.60;43.70;;;;;;5070782;28;20039;-57
2020/12/05 02:14:46;;;;;;;6.65;4.35;;;20.60;43.70;;;;;;5036140;28;20051;-57
2020/12/05 02:17:14;;;;;;;5.43;4.13;;;20.60;43.70;;;;;;5070229;28;20045;-57
2020/12/05 02:19:44;;;;;;;6.90;4.40;;;20.60;43.70;;;;;;5071523;28;20036;-58
2020/12/05 02:22:12;;;;;;;7.32;4.22;;;20.60;43.70;;;;;;5066013;28;20031;-57
2020/12/05 02:24:39;;;;;;;6.80;4.15;;;20.60;43.70;;;;;;5074172;28;20123;-57
2020/12/05 02:27:05;;;;;;;7.10;4.70;;;20.60;43.70;;;;;;5052204;28;20029;-57
2020/12/05 02:29:34;;;;;;;5.60;4.38;;;20.60;43.70;;;;;;5074272;28;20060;-57
2020/12/05 02:32:02;;;;;;;7.05;4.32;;;20.60;43.70;;;;;;5073680;28;20036;-58
2020/12/05 02:34:28;;;;;;;7.43;4.68;;;20.60;43.70;;;;;;5074689;28;20028;-57
2020/12/05 02:36:55;;;;;;;6.60;4.45;;;20.60;43.60;;;;;;5073907;28;20028;-58
2020/12/05 02:39:22;;;;;;;5.43;4.15;;;20.60;43.60;;;;;;5074746;28;20024;-57
2020/12/05 02:41:48;;;;;;;5.65;4.35;;;20.60;43.60;;;;;;5074317;28;20070;-57
2020/12/05 02:44:14;;;;;;;5.38;3.95;;;20.60;43.60;;;;;;5073379;28;20299;-57
2020/12/05 02:46:42;;;;;;;7.65;4.15;;;20.60;43.60;;;;;;5074371;28;20031;-57
2020/12/05 02:49:08;;;;;;;4.95;3.53;;;20.60;43.60;;;;;;5073592;28;20111;-57
2020/12/05 02:51:33;;;;;;;5.35;3.53;;;20.60;43.60;;;;;;5074947;28;20325;-57
2020/12/05 02:53:59;;;;;;;6.03;3.97;;;20.60;43.60;;;;;;5073684;28;20024;-58
2020/12/05 02:56:25;;;;;;;5.28;3.65;;;20.60;43.60;;;;;;5074047;28;20032;-56
2020/12/05 02:58:50;;;;;;;5.00;3.58;;;20.60;43.60;;;;;;5073916;28;20025;-57
2020/12/05 03:01:16;;;;;;;4.95;4.03;;;20.60;43.50;;;;;;5072924;28;20040;-57
2020/12/05 03:03:42;;;;;;;5.95;3.72;;;20.60;43.60;;;;;;5074471;28;20025;-57
2020/12/05 03:06:07;;;;;;;5.05;3.47;;;20.60;43.50;;;;;;5073069;28;20036;-57
2020/12/05 03:08:33;;;;;;;5.72;3.72;;;20.60;43.50;;;;;;5074014;28;20028;-57
2020/12/05 03:10:59;;;;;;;5.05;3.40;;;20.60;43.50;;;;;;5073051;28;20477;-58
2020/12/05 03:13:25;;;;;;;4.70;3.50;;;20.60;43.50;;;;;;5073688;28;20421;-57
2020/12/05 03:15:50;;;;;;;4.43;3.20;;;20.60;43.50;;;;;;5073824;28;20125;-57
2020/12/05 03:18:16;;;;;;;4.25;3.35;;;20.60;43.50;;;;;;5072832;28;20063;-57
2020/12/05 03:20:42;;;;;;;3.75;3.28;;;20.60;43.50;;;;;;5073844;28;20025;-57
2020/12/05 03:23:07;;;;;;;4.00;3.15;;;20.60;43.50;;;;;;5072513;28;20044;-57
2020/12/05 03:25:33;;;;;;;4.18;2.97;;;20.60;43.50;;;;;;5073122;28;20086;-56
2020/12/05 03:27:58;;;;;;;3.97;3.05;;;20.60;43.50;;;;;;5054658;28;20032;-57
2020/12/05 03:30:24;;;;;;;4.68;3.45;;;20.60;43.50;;;;;;5072754;28;20037;-57
2020/12/05 03:32:50;;;;;;;5.53;3.17;;;20.60;43.50;;;;;;5073481;28;20025;-57
2020/12/05 03:35:15;;;;;;;3.60;3.20;;;20.60;43.50;;;;;;5072566;28;20476;-56
2020/12/05 03:37:41;;;;;;;4.32;3.38;;;20.60;43.50;;;;;;5073463;28;20078;-56
2020/12/05 03:40:07;;;;;;;4.43;2.85;;;20.70;43.50;;;;;;5072766;28;20039;-57
2020/12/05 03:42:33;;;;;;;6.18;3.08;;;20.60;43.50;;;;;;5072912;28;20039;-58
2020/12/05 03:44:58;;;;;;;3.95;3.03;;;20.70;43.50;;;;;;5079080;28;20033;-58
2020/12/05 03:47:24;;;;;;;4.20;2.92;;;20.70;43.50;;;;;;5073450;28;20473;-57
2020/12/05 03:49:50;;;;;;;4.10;3.08;;;20.60;43.40;;;;;;5073117;28;20025;-56
2020/12/05 03:52:16;;;;;;;4.20;2.60;;;20.70;43.50;;;;;;5072315;28;20194;-57
2020/12/05 03:54:44;;;;;;;3.10;2.80;;;20.60;43.40;;;;;;5072691;28;20041;-57
2020/12/05 03:57:10;;;;;;;3.80;2.90;;;20.70;43.50;;;;;;5071903;28;20095;-56
2020/12/05 03:59:36;;;;;;;2.95;2.50;;;20.70;43.40;;;;;;5072033;28;20035;-57
2020/12/05 04:02:01;;;;;;;3.63;2.70;;;20.70;43.40;;;;;;5071894;28;20084;-57
2020/12/05 04:04:27;;;;;;;3.40;2.67;;;20.60;43.40;;;;;;5072382;28;20090;-55
2020/12/05 04:06:53;;;;;;;3.80;2.53;;;20.60;43.40;;;;;;5072947;28;20066;-57
2020/12/05 04:09:19;;;;;;;2.78;2.38;;;20.70;43.40;;;;;;5071859;28;20385;-57
2020/12/05 04:11:44;;;;;;;3.10;2.33;;;20.70;43.40;;;;;;5072304;28;20035;-57
2020/12/05 04:14:11;;;;;;;3.33;2.80;;;20.70;43.40;;;;;;5072140;28;20055;-57
2020/12/05 04:16:37;;;;;;;3.20;2.53;;;20.70;43.40;;;;;;5072533;28;20032;-57
2020/12/05 04:19:04;;;;;;;3.25;2.35;;;20.60;43.30;;;;;;5071687;28;20492;-57
2020/12/05 04:21:29;;;;;;;3.15;2.55;;;20.70;43.30;;;;;;5072396;28;20039;-55
2020/12/05 04:23:55;;;;;;;3.05;2.70;;;20.70;43.30;;;;;;5087676;28;20036;-57
2020/12/05 04:26:24;;;;;;;3.15;2.60;;;20.70;43.40;;;;;;5071956;28;20377;-57
2020/12/05 04:28:50;;;;;;;5.32;2.90;;;20.70;43.30;;;;;;5072538;28;20032;-57
2020/12/05 04:31:16;;;;;;;3.95;2.92;;;20.60;43.30;;;;;;5070809;28;20164;-56
2020/12/05 04:33:42;;;;;;;2.65;2.15;;;20.70;43.30;;;;;;5072198;28;20162;-56
2020/12/05 04:36:08;;;;;;;3.20;2.35;;;20.70;43.30;;;;;;5071304;28;20099;-57
2020/12/05 04:38:33;;;;;;;3.28;2.42;;;20.70;43.30;;;;;;5072260;28;20413;-57
2020/12/05 04:41:00;;;;;;;2.60;2.17;;;20.70;43.30;;;;;;5052587;28;20487;-58
2020/12/05 04:43:26;;;;;;;2.72;2.35;;;20.70;43.20;;;;;;5071187;28;20432;-57
2020/12/05 04:45:53;;;;;;;3.70;2.38;;;20.70;43.20;;;;;;5071551;28;20025;-56
2020/12/05 04:48:20;;;;;;;3.25;2.58;;;20.70;43.30;;;;;;5071199;28;20099;-57
2020/12/05 04:50:46;;;;;;;3.38;2.45;;;20.70;43.90;;;;;;5071775;28;20082;-57
2020/12/05 04:53:22;;;;;;;3.13;2.17;;;20.70;43.20;;;;;;5073347;28;20036;-56
2020/12/05 04:55:48;;;;;;;2.78;2.35;;;20.70;43.20;;;;;;5070059;28;20060;-57
2020/12/05 04:58:20;;;;;;;2.85;2.20;;;20.70;43.20;;;;;;5070755;28;20029;-57
2020/12/05 05:00:49;;;;;;;5.20;3.10;;;20.70;43.20;;;;;;5071388;28;20032;-57
2020/12/05 05:03:19;;;;;;;2.83;2.00;;;20.70;43.20;;;;;;5052883;28;20053;-57
2020/12/05 05:05:45;;;;;;;2.90;2.25;;;20.70;43.20;;;;;;5071889;28;20111;-55
2020/12/05 05:08:12;;;;;;;3.08;2.40;;;20.70;43.60;;;;;;5065999;28;20529;-55
2020/12/05 05:10:38;;;;;;;3.28;2.30;;;20.70;43.20;;;;;;5071865;28;20055;-58
2020/12/05 05:13:06;;;;;;;3.58;2.28;;;20.70;43.20;;;;;;5070269;28;20036;-57
2020/12/05 05:15:32;;;;;;;3.95;2.38;;;20.70;43.20;;;;;;5071829;28;20067;-56
2020/12/05 05:18:03;;;;;;;2.40;2.15;;;20.70;43.10;;;;;;5071662;28;20032;-58
2020/12/05 05:20:35;;;;;;;2.97;2.10;;;20.70;43.20;;;;;;5053659;28;20033;-57
2020/12/05 05:23:14;;;;;;;3.67;2.20;;;20.70;43.10;;;;;;5071050;28;20036;-58
2020/12/05 05:25:57;;;;;;;2.60;2.30;;;20.70;43.10;;;;;;5071391;28;20033;-56
2020/12/05 05:28:32;;;;;;;3.60;2.28;;;20.70;43.10;;;;;;5070493;28;20025;-57
2020/12/05 05:31:05;;;;;;;3.50;2.42;;;20.70;43.20;;;;;;5071102;28;20032;-58
2020/12/05 05:33:42;;;;;;;2.53;2.08;;;20.70;43.10;;;;;;5071562;28;20033;-56
2020/12/05 05:36:26;;;;;;;3.35;2.35;;;20.70;43.10;;;;;;5070485;28;20074;-57
2020/12/05 05:38:59;;;;;;;2.47;2.00;;;20.70;43.10;;;;;;5071322;28;20028;-56
2020/12/05 05:41:26;;;;;;;3.13;1.98;;;20.70;43.10;;;;;;5069850;28;20502;-58
2020/12/05 05:44:05;;;;;;;3.47;2.17;;;20.70;43.10;;;;;;5071657;28;20114;-56
2020/12/05 05:46:36;;;;;;;2.60;1.90;;;20.70;43.10;;;;;;5071160;28;20028;-57
2020/12/05 05:49:03;;;;;;;2.35;1.88;;;20.70;43.10;;;;;;5070593;28;20035;-58
2020/12/05 05:52:00;;;;;;;2.33;2.03;;;20.70;43.10;;;;;;5071290;28;20028;-56
2020/12/05 05:54:31;;;;;;;2.60;2.08;;;20.70;43.00;;;;;;5058349;28;20105;-53
2020/12/05 05:56:56;;;;;;;2.78;2.00;;;20.70;43.10;;;;;;5074896;28;20051;-57
2020/12/05 05:59:23;;;;;;;3.33;2.20;;;20.70;43.00;;;;;;5074380;28;20024;-56
2020/12/05 06:01:51;;;;;;;2.80;1.95;;;20.70;43.00;;;;;;5075476;28;20052;-58
2020/12/05 06:04:27;;;;;;;2.30;1.80;;;20.70;43.00;;;;;;5074208;28;20041;-57
2020/12/05 06:06:53;;;;;;;2.53;1.80;;;20.70;43.00;;;;;;5068096;28;20043;-56
2020/12/05 06:09:24;;;;;;;2.17;1.63;;;20.70;43.00;;;;;;5038289;28;20029;-57
2020/12/05 06:11:52;;;;;;;2.47;1.92;;;20.70;43.00;;;;;;5075249;28;20032;-56
2020/12/05 06:14:21;;;;;;;2.38;1.85;;;20.80;43.00;;;;;;5056261;28;20107;-57
2020/12/05 06:16:57;;;;;;;2.65;1.80;;;20.70;43.00;;;;;;5074695;28;20100;-56
2020/12/05 06:19:24;;;;;;;2.45;1.50;;;20.70;43.00;;;;;;5073358;28;20027;-58
2020/12/05 06:21:54;;;;;;;2.00;1.50;;;20.80;43.00;;;;;;5074718;28;20104;-55
2020/12/05 06:24:40;;;;;;;2.65;1.90;;;20.70;43.00;;;;;;5073893;28;20599;-56
2020/12/05 06:27:08;;;;;;;2.10;1.63;;;20.70;43.00;;;;;;5064793;28;20381;-57
2020/12/05 06:29:37;;;;;;;2.38;1.80;;;20.80;43.00;;;;;;5074608;28;20032;-56
2020/12/05 06:32:04;;;;;;;2.33;1.75;;;20.70;43.00;;;;;;5074148;28;20058;-58
2020/12/05 06:34:42;;;;;;;2.03;1.70;;;20.70;43.00;;;;;;5074538;28;20052;-56
2020/12/05 06:37:30;;;;;;;2.17;1.67;;;20.80;43.00;;;;;;5047679;28;20408;-55
2020/12/05 06:40:03;;;;;;;2.20;1.73;;;20.70;43.00;;;;;;5056526;28;20040;-56
2020/12/05 06:42:44;;;;;;;1.85;1.50;;;20.80;43.00;;;;;;5074351;28;20031;-57
2020/12/05 06:45:27;;;;;;;1.65;1.40;;;20.70;42.90;;;;;;5066487;28;20040;-56
2020/12/05 06:48:16;;;;;;;3.22;1.83;;;20.70;42.90;;;;;;5074173;28;20027;-57
2020/12/05 06:50:44;;;;;;;2.30;1.77;;;20.80;43.00;;;;;;5068637;28;20163;-56
2020/12/05 06:53:22;;;;;;;2.75;1.98;;;20.80;42.90;;;;;;5072866;28;20069;-56
2020/12/05 06:55:52;;;;;;;2.95;1.67;;;20.80;42.90;;;;;;5056540;28;20067;-56
2020/12/05 06:58:26;;;;;;;2.33;1.58;;;20.80;43.00;;;;;;5073124;28;20024;-56
2020/12/05 07:00:53;;;;;;;2.05;1.42;;;20.70;42.90;;;;;;5073955;28;20025;-55
2020/12/05 07:03:29;;;;;;;2.10;1.40;;;20.80;43.00;;;;;;5073345;28;20127;-57
2020/12/05 07:05:56;;;;;;;1.90;1.55;;;20.70;42.90;;;;;;5073118;28;20028;-56
2020/12/05 07:08:26;;;;;;;2.72;1.50;;;20.70;42.90;;;;;;5072741;28;20028;-54
2020/12/05 07:11:09;;;;;;;1.77;1.40;;;20.70;42.80;;;;;;5074050;28;20063;-55
2020/12/05 07:13:39;;;;;;;1.70;1.20;;;20.70;42.80;;;;;;5056029;28;20091;-56
2020/12/05 07:16:12;;;;;;;3.38;1.65;;;20.70;42.80;;;;;;5073100;28;20032;-58
2020/12/05 07:18:43;;;;;;;2.45;1.50;;;20.80;42.80;;;;;;5073501;28;20036;-55
2020/12/05 07:21:09;;;;;;;2.67;1.50;;;20.70;42.80;;;;;;5073134;28;20116;-57
2020/12/05 07:23:35;;;;;;;2.65;1.95;;;20.70;42.80;;;;;;5073529;28;20032;-56
2020/12/05 07:26:01;;;;;;;2.38;1.50;;;20.70;42.80;;;;;;5073681;28;20032;-58
2020/12/05 07:28:27;;;;;;;2.20;1.80;;;20.70;42.90;;;;;;5072745;28;20116;-55
2020/12/05 07:30:53;;;;;;;2.08;1.50;;;20.80;42.90;;;;;;5073596;28;20067;-55
2020/12/05 07:33:21;;;;;;;2.38;1.50;;;20.80;42.80;;;;;;5072441;28;20079;-57
2020/12/05 07:36:07;;;;;;;2.35;1.70;;;20.70;42.80;;;;;;5055718;28;20075;-56
2020/12/05 07:38:36;;;;;;;1.65;1.20;;;20.70;42.80;;;;;;5073758;28;20021;-55
2020/12/05 07:41:15;;;;;;;2.03;1.30;;;20.70;42.80;;;;;;5073280;28;20108;-58
2020/12/05 07:43:42;;;;;;;1.85;1.20;;;20.80;42.80;;;;;;5073509;28;20085;-56
2020/12/05 07:46:10;;;;;;;2.22;1.60;;;20.70;42.70;;;;;;5071994;28;20024;-55
2020/12/05 07:48:36;;;;;;;1.92;1.35;;;20.70;42.70;;;;;;5072975;28;20059;-56
2020/12/05 07:51:03;;;;;;;1.55;1.35;;;20.80;42.80;;;;;;5073470;28;20107;-58
2020/12/05 07:53:30;;;;;;;1.20;0.95;;;20.80;42.80;;;;;;5072846;28;20054;-57
2020/12/05 07:55:57;;;;;;;1.60;1.20;;;20.80;42.80;;;;;;5072821;28;20059;-57
2020/12/05 07:58:24;;;;;;;1.88;1.30;;;20.70;43.00;;;;;;5072048;28;20054;-58
2020/12/05 08:00:54;;;;;;;2.30;1.35;;;20.80;42.80;;;;;;5072925;28;20063;-58
2020/12/05 08:04:02;;;;;;;1.65;1.30;;;20.80;42.90;;;;;;5070878;28;20048;-57
2020/12/05 08:06:49;;;;;;;2.33;1.30;;;20.90;42.90;;;;;;5044286;28;20028;-59
2020/12/05 08:09:19;;;;;;;1.50;1.05;;;20.90;42.70;;;;;;5070225;28;20437;-50
2020/12/05 08:11:52;;;;;;;3.33;1.42;;;20.90;42.80;;;;;;5075678;28;20078;-56
2020/12/05 08:14:18;;;;;;;5.22;1.42;;;21.00;42.90;;;;;;5070930;28;20082;-59
2020/12/05 08:16:44;;;;;;;3.67;1.40;;;21.00;43.00;;;;;;5070663;28;20457;-58
2020/12/05 08:19:10;;;;;;;3.45;1.35;;;21.00;43.30;;;;;;5069484;28;20032;-59
2020/12/05 08:21:37;;;;;;;4.25;1.30;;;21.00;43.40;;;;;;5069968;28;20070;-57
2020/12/05 08:24:10;;;;;;;3.42;1.50;;;21.10;43.50;;;;;;5070452;28;20389;-57
2020/12/05 08:26:38;;;;;;;1.92;1.23;;;21.10;43.70;;;;;;5070362;28;20587;-57
2020/12/05 08:29:07;;;;;;;5.07;1.45;;;21.20;43.70;;;;;;5071267;28;20024;-57
2020/12/05 08:31:39;;;;;;;2.90;1.30;;;21.20;43.90;;;;;;5071863;28;20033;-57
2020/12/05 08:34:05;;;;;;;4.30;1.50;;;21.30;43.60;;;;;;5072070;28;20112;-58
2020/12/05 08:36:33;;;;;;;3.22;1.50;;;21.30;43.60;;;;;;5074791;28;20607;-59
2020/12/05 08:39:12;;;;;;;5.07;1.20;;;21.30;44.00;;;;;;5073299;28;20118;-70
2020/12/05 08:41:48;;;;;;;3.13;1.38;;;21.30;43.70;;;;;;5075571;28;20029;-66
2020/12/05 08:44:19;;;;;;;3.03;1.33;;;21.30;43.80;;;;;;5067268;28;20067;-67
2020/12/05 08:46:45;;;;;;;1.55;1.15;;;21.40;43.80;;;;;;5052537;28;20044;-67
2020/12/05 08:49:19;;;;;;;4.18;1.88;;;21.40;43.70;;;;;;5067852;28;20024;-69
2020/12/05 08:51:50;;;;;;;9.20;1.30;;;21.40;44.00;;;;;;5069811;28;20028;-68
2020/12/05 08:54:16;;;;;;;5.82;1.55;;;21.40;43.90;;;;;;5068320;28;20028;-69
2020/12/05 08:56:42;;;;;;;5.18;2.38;;;21.30;43.90;;;;;;5070220;28;20562;-68
2020/12/05 08:59:09;;;;;;;3.72;1.30;;;21.30;43.90;;;;;;5069601;28;20020;-60
2020/12/05 09:01:42;;;;;;;2.00;1.17;;;21.40;44.00;;;;;;5070354;28;20136;-64
2020/12/05 09:04:12;;;;;;;2.22;1.30;;;21.30;43.90;;;;;;5070623;28;20558;-61
2020/12/05 09:06:39;;;;;;;3.30;1.33;;;21.40;43.90;;;;;;5071068;28;20036;-67
2020/12/05 09:09:06;;;;;;;3.33;1.58;;;21.40;43.80;;;;;;5072148;28;20382;-49
2020/12/05 09:11:31;;;;;;;2.63;1.20;;;21.40;43.90;;;;;;5071118;28;20036;-58
2020/12/05 09:13:57;;;;;;;3.45;1.20;;;21.50;44.20;;;;;;5071459;28;20050;-59
2020/12/05 09:16:35;;;;;;;4.90;1.17;;;21.50;44.10;;;;;;5070969;28;20037;-58
2020/12/05 09:19:01;;;;;;;3.05;1.17;;;21.50;44.30;;;;;;5071216;28;20066;-58
2020/12/05 09:21:33;;;;;;;11.30;1.70;;;21.50;44.30;;;;;;5070448;28;20024;-57
2020/12/05 09:24:01;;;;;;;2.15;1.13;;;21.50;44.40;;;;;;5071306;28;20376;-57
2020/12/05 09:26:27;;;;;;;9.50;2.28;;;21.50;44.50;;;;;;5070709;28;20039;-54
2020/12/05 09:28:53;;;;;;;3.80;1.40;;;21.50;44.90;;;;;;5070969;28;20032;-49
2020/12/05 09:31:18;;;;;;;6.93;1.52;;;21.60;44.70;;;;;;5070348;28;20042;-55
2020/12/05 09:33:44;;;;;;;7.07;1.58;;;21.60;44.60;;;;;;5071468;28;20075;-55
2020/12/05 09:36:10;;;;;;;3.55;1.20;;;21.60;44.70;;;;;;5071174;28;20044;-58
2020/12/05 09:38:36;;;;;;;4.18;1.65;;;21.60;44.70;;;;;;5072180;28;20029;-53
2020/12/05 09:41:02;;;;;;;9.40;1.38;;;21.60;44.70;;;;;;5072595;28;20472;-54
2020/12/05 09:43:27;;;;;;;2.65;1.23;;;21.60;45.00;;;;;;5052660;28;20040;-55
2020/12/05 09:45:53;;;;;;;6.20;1.40;;;21.60;44.80;;;;;;5071153;28;20036;-48
2020/12/05 09:48:19;;;;;;;4.95;1.40;;;21.50;44.80;;;;;;5070204;28;20031;-56
2020/12/05 09:50:45;;;;;;;3.08;1.10;;;21.60;44.80;;;;;;5070506;28;20477;-49
2020/12/05 09:53:11;;;;;;;7.15;1.60;;;21.50;44.80;;;;;;5068338;28;20024;-58
2020/12/05 09:55:36;;;;;;;2.92;1.10;;;21.50;44.60;;;;;;5069932;28;20032;-50
2020/12/05 09:58:03;;;;;;;4.55;1.42;;;21.50;44.70;;;;;;5071278;28;20413;-47
2020/12/05 10:00:28;;;;;;;3.28;1.30;;;21.50;44.70;;;;;;5075999;28;20037;-50
2020/12/05 10:02:54;;;;;;;3.38;1.50;;;21.50;44.60;;;;;;5074494;28;20053;-57
2020/12/05 10:05:20;;;;;;;4.07;1.10;;;21.40;44.50;;;;;;5071569;28;20366;-50
2020/12/05 10:07:46;;;;;;;5.38;1.40;;;21.40;44.60;;;;;;5072162;28;20165;-57
2020/12/05 10:10:12;;;;;;;3.75;1.48;;;21.40;44.40;;;;;;5076054;28;20028;-55
2020/12/05 10:12:38;;;;;;;2.95;1.42;;;21.40;44.40;;;;;;5071624;28;20104;-49
2020/12/05 10:15:05;;;;;;;2.30;1.20;;;21.40;44.40;;;;;;5070510;28;20028;-52
2020/12/05 10:17:32;;;;;;;2.20;1.33;;;21.40;44.50;;;;;;5070064;28;20028;-49
2020/12/05 10:19:57;;;;;;;3.25;1.33;;;21.40;44.40;;;;;;5070675;28;20028;-48
2020/12/05 10:22:24;;;;;;;3.17;1.50;;;21.40;44.40;;;;;;5069735;28;20039;-49
2020/12/05 10:24:50;;;;;;;8.57;1.67;;;21.40;44.40;;;;;;5072160;28;20039;-48
2020/12/05 10:27:16;;;;;;;2.95;1.35;;;21.30;44.40;;;;;;5070105;28;20436;-57
2020/12/05 10:29:42;;;;;;;1.90;1.10;;;21.40;44.20;;;;;;5070557;28;20111;-50
2020/12/05 10:32:08;;;;;;;2.28;1.30;;;21.30;44.20;;;;;;5070713;28;20100;-51
2020/12/05 10:34:33;;;;;;;3.60;1.55;;;21.30;44.30;;;;;;5069914;28;20661;-50
2020/12/05 10:36:59;;;;;;;4.32;1.20;;;21.40;44.30;;;;;;5070812;28;20029;-50
2020/12/05 10:39:25;;;;;;;2.15;1.10;;;21.40;44.10;;;;;;5077775;28;20024;-51
2020/12/05 10:41:51;;;;;;;3.30;1.92;;;21.40;44.10;;;;;;5073784;28;20066;-53
2020/12/05 10:44:17;;;;;;;4.05;1.60;;;21.40;44.10;;;;;;5072482;28;20020;-54
2020/12/05 10:46:45;;;;;;;10.10;1.90;;;21.40;44.20;;;;;;5073553;28;20029;-56
2020/12/05 10:49:11;;;;;;;4.03;1.45;;;21.40;44.00;;;;;;5073675;28;20024;-49
2020/12/05 10:51:38;;;;;;;1.58;1.10;;;21.40;43.90;;;;;;5072763;28;20095;-49
2020/12/05 10:54:05;;;;;;;4.22;1.52;;;21.40;44.40;;;;;;5074386;28;20032;-50
2020/12/05 10:56:31;;;;;;;2.67;1.20;;;21.40;43.80;;;;;;5073066;28;20455;-51
2020/12/05 10:58:57;;;;;;;3.92;1.33;;;21.40;43.70;;;;;;5074080;28;20024;-48
2020/12/05 11:01:22;;;;;;;6.88;3.03;;;21.40;43.80;;;;;;5072987;28;20426;-52
2020/12/05 11:03:48;;;;;;;15.05;1.90;;;21.40;43.80;;;;;;5077323;28;20131;-49
2020/12/05 11:06:21;;;;;;;3.92;1.60;;;21.40;43.80;;;;;;5073756;28;20462;-58
2020/12/05 11:08:48;;;;;;;3.65;1.13;;;21.40;43.80;;;;;;5074622;28;20028;-52
2020/12/05 11:11:15;;;;;;;5.45;1.73;;;21.40;43.70;;;;;;5055643;28;20115;-55
2020/12/05 11:13:41;;;;;;;3.38;1.50;;;21.40;43.60;;;;;;5073407;28;20094;-51
2020/12/05 11:16:06;;;;;;;3.45;1.73;;;21.40;43.80;;;;;;5074002;28;20453;-55
2020/12/05 11:18:32;;;;;;;3.78;1.60;;;21.40;43.60;;;;;;5054953;28;20116;-49
2020/12/05 11:20:58;;;;;;;2.90;1.55;;;21.40;43.90;;;;;;5073286;28;20021;-51
2020/12/05 11:23:24;;;;;;;3.72;1.10;;;21.40;43.50;;;;;;5075358;28;20032;-50
2020/12/05 11:25:49;;;;;;;5.30;1.60;;;21.40;43.70;;;;;;5073475;28;20454;-51
2020/12/05 11:28:15;;;;;;;3.97;1.65;;;21.40;43.60;;;;;;5073036;28;20028;-55
2020/12/05 11:30:41;;;;;;;2.85;1.52;;;21.40;43.50;;;;;;5079462;28;20048;-57
2020/12/05 11:33:07;;;;;;;3.88;1.40;;;21.40;43.60;;;;;;5073128;28;20028;-53
2020/12/05 11:35:33;;;;;;;4.68;1.40;;;21.40;43.60;;;;;;5072268;28;20154;-49
2020/12/05 11:37:58;;;;;;;3.45;2.03;;;21.40;43.60;;;;;;5055218;28;20024;-54
2020/12/05 11:40:24;;;;;;;6.10;1.40;;;21.40;43.50;;;;;;5077153;28;20385;-50
2020/12/05 11:42:50;;;;;;;6.82;1.38;;;21.40;43.60;;;;;;5055377;28;20503;-52
2020/12/05 11:45:15;;;;;;;3.35;1.30;;;21.40;43.50;;;;;;5073052;28;20100;-60
2020/12/05 11:47:41;;;;;;;3.08;1.60;;;21.40;43.50;;;;;;5072955;28;20106;-48
2020/12/05 11:50:07;;;;;;;4.97;1.42;;;21.30;43.40;;;;;;5071821;28;20028;-55
2020/12/05 11:52:33;;;;;;;5.00;1.60;;;21.40;43.50;;;;;;5074951;28;20037;-57
2020/12/05 11:54:59;;;;;;;7.05;1.67;;;21.40;43.40;;;;;;5072957;28;20032;-55
2020/12/05 11:57:24;;;;;;;3.67;2.05;;;21.40;43.50;;;;;;5072400;28;20035;-49
2020/12/05 11:59:50;;;;;;;5.38;1.70;;;21.40;43.60;;;;;;5073237;28;20167;-50
2020/12/05 12:02:16;;;;;;;8.43;1.90;;;21.50;43.60;;;;;;5072335;28;20056;-58
2020/12/05 12:04:41;;;;;;;2.80;1.40;;;21.50;43.70;;;;;;5071600;28;20074;-48
2020/12/05 12:07:07;;;;;;;5.28;1.65;;;21.60;43.80;;;;;;5072288;28;20459;-54
2020/12/05 12:09:34;;;;;;;7.65;1.70;;;21.50;43.70;;;;;;5082049;28;20028;-54
2020/12/05 12:12:00;;;;;;;7.55;1.60;;;21.60;43.90;;;;;;5073615;28;20466;-54
2020/12/05 12:14:26;;;;;;;11.02;1.70;;;21.60;43.90;;;;;;5059805;28;20086;-57
2020/12/05 12:16:51;;;;;;;7.07;2.75;;;21.60;44.60;;;;;;5076426;28;20060;-48
2020/12/05 12:19:17;;;;;;;5.57;2.00;;;21.60;44.10;;;;;;5053952;28;20036;-61
2020/12/05 12:21:43;;;;;;;6.55;2.42;;;21.60;44.30;;;;;;5076240;28;20509;-53
2020/12/05 12:24:08;;;;;;;9.15;1.92;;;21.60;44.50;;;;;;5072905;28;20465;-55
2020/12/05 12:26:34;;;;;;;9.30;3.47;;;21.60;44.70;;;;;;5071605;28;20039;-53
2020/12/05 12:29:00;;;;;;;6.80;2.65;;;21.60;45.60;;;;;;5072289;28;20103;-51
2020/12/05 12:31:27;;;;;;;4.57;2.60;;;21.60;46.10;;;;;;5053618;28;20033;-50
2020/12/05 12:33:53;;;;;;;10.98;3.78;;;21.60;46.20;;;;;;5075168;28;20033;-50
2020/12/05 12:36:20;;;;;;;5.78;2.30;;;21.70;46.60;;;;;;5071794;28;20445;-56
2020/12/05 12:38:47;;;;;;;9.45;2.63;;;21.70;46.50;;;;;;5072631;28;20099;-51
2020/12/05 12:41:17;;;;;;;8.55;2.88;;;21.70;46.70;;;;;;5071932;28;20033;-54
2020/12/05 12:43:43;;;;;;;7.15;2.65;;;21.60;47.00;;;;;;5071607;28;20032;-48
2020/12/05 12:46:10;;;;;;;7.68;2.05;;;21.60;47.00;;;;;;5072383;28;20024;-48
2020/12/05 12:48:38;;;;;;;6.18;2.47;;;21.60;47.20;;;;;;5071197;28;20036;-56
2020/12/05 12:51:03;;;;;;;4.50;2.33;;;21.60;47.00;;;;;;5086832;28;20122;-55